createdAt,value
2023-04-18T00:00:32.917Z,89.78
2023-04-18T00:03:02.336Z,90.29
2023-04-18T00:05:31.004Z,89.01
2023-04-18T00:07:57.876Z,88.77
2023-04-18T00:10:24.763Z,89.09
2023-04-18T00:12:51.757Z,89.77
2023-04-18T00:15:18.708Z,90.94
2023-04-18T00:17:45.783Z,91.91
2023-04-18T00:20:13.411Z,91.72
2023-04-18T00:22:46.689Z,92.24
2023-04-18T00:25:14.962Z,93.15
2023-04-18T00:27:42.146Z,92.45
2023-04-18T00:30:09.845Z,93.19
2023-04-18T00:32:36.882Z,93.65
2023-04-18T00:35:04.264Z,93.67
2023-04-18T00:37:31.283Z,94.11
2023-04-18T00:39:58.363Z,93.77
2023-04-18T00:42:27.763Z,93.60
2023-04-18T00:44:54.857Z,93.36
2023-04-18T00:47:21.895Z,94.23
2023-04-18T00:49:49.365Z,91.93
2023-04-18T00:52:18.415Z,90.77
2023-04-18T00:54:45.677Z,90.13
2023-04-18T00:57:14.307Z,90.56
2023-04-18T00:59:41.477Z,91.46
2023-04-18T01:02:08.563Z,92.50
2023-04-18T01:04:39.376Z,92.87
2023-04-18T01:07:06.717Z,93.39
2023-04-18T01:09:33.610Z,93.99
2023-04-18T01:12:00.634Z,93.40
2023-04-18T01:14:27.722Z,93.28
2023-04-18T01:16:54.747Z,89.81
2023-04-18T01:19:21.624Z,88.50
2023-04-18T01:21:48.584Z,87.63
2023-04-18T01:24:17.689Z,88.76
2023-04-18T01:26:49.290Z,90.72
2023-04-18T01:29:16.262Z,89.87
2023-04-18T01:31:43.277Z,90.87
2023-04-18T01:34:10.403Z,90.26
2023-04-18T01:36:38.438Z,90.24
2023-04-18T01:39:05.439Z,91.04
2023-04-18T01:41:32.912Z,90.35
2023-04-18T01:44:00.681Z,87.81
2023-04-18T01:46:28.803Z,89.42
2023-04-18T01:48:56.754Z,89.64
2023-04-18T01:51:23.830Z,89.15
2023-04-18T01:53:51.086Z,90.13
2023-04-18T01:56:18.109Z,89.04
2023-04-18T01:58:45.172Z,88.27
2023-04-18T02:01:12.274Z,88.62
2023-04-18T02:03:39.863Z,88.59
2023-04-18T02:06:07.303Z,89.02
2023-04-18T02:08:35.866Z,88.99
2023-04-18T02:11:03.347Z,89.09
2023-04-18T02:13:30.299Z,87.03
2023-04-18T02:15:57.344Z,87.57
2023-04-18T02:18:25.782Z,87.74
2023-04-18T02:20:52.775Z,88.05
2023-04-18T02:23:19.865Z,87.73
2023-04-18T02:25:46.821Z,87.91
2023-04-18T02:28:13.797Z,86.18
2023-04-18T02:30:40.691Z,85.42
2023-04-18T02:33:07.747Z,86.87
2023-04-18T02:35:35.274Z,86.78
2023-04-18T02:38:02.216Z,85.80
2023-04-18T02:40:29.142Z,86.74
2023-04-18T02:42:56.008Z,87.98
2023-04-18T02:45:22.970Z,88.77
2023-04-18T02:47:55.430Z,88.84
2023-04-18T02:50:25.315Z,87.99
2023-04-18T02:52:52.261Z,86.30
2023-04-18T02:55:19.265Z,85.72
2023-04-18T02:57:46.258Z,86.92
2023-04-18T03:00:14.203Z,87.20
2023-04-18T03:02:41.278Z,87.03
2023-04-18T03:05:08.964Z,87.82
2023-04-18T03:07:35.990Z,86.61
2023-04-18T03:10:03.358Z,85.89
2023-04-18T03:12:30.570Z,85.36
2023-04-18T03:14:57.465Z,85.91
2023-04-18T03:17:24.429Z,85.91
2023-04-18T03:19:51.372Z,87.36
2023-04-18T03:22:18.463Z,85.99
2023-04-18T03:24:46.409Z,85.87
2023-04-18T03:27:13.599Z,87.64
2023-04-18T03:29:40.545Z,87.53
2023-04-18T03:32:07.411Z,88.33
2023-04-18T03:34:34.324Z,86.55
2023-04-18T03:37:01.461Z,85.70
2023-04-18T03:39:28.374Z,87.28
2023-04-18T03:41:55.357Z,86.40
2023-04-18T03:44:22.254Z,86.35
2023-04-18T03:46:49.231Z,88.51
2023-04-18T03:49:17.228Z,88.64
2023-04-18T03:51:47.913Z,89.13
2023-04-18T03:54:16.552Z,88.72
2023-04-18T03:56:43.863Z,88.42
2023-04-18T03:59:11.253Z,87.43
2023-04-18T04:01:38.395Z,88.25
2023-04-18T04:04:06.405Z,87.87
2023-04-18T04:06:33.371Z,89.06
2023-04-18T04:09:00.769Z,89.83
2023-04-18T04:11:27.737Z,90.41
2023-04-18T04:13:54.732Z,89.46
2023-04-18T04:16:21.920Z,89.10
2023-04-18T04:18:48.877Z,88.11
2023-04-18T04:21:15.956Z,88.85
2023-04-18T04:23:42.940Z,89.30
2023-04-18T04:26:10.187Z,88.53
2023-04-18T04:28:37.187Z,87.62
2023-04-18T04:31:08.485Z,87.72
2023-04-18T04:33:38.663Z,87.71
2023-04-18T04:36:07.541Z,89.81
2023-04-18T04:38:38.169Z,88.71
2023-04-18T04:41:09.278Z,89.56
2023-04-18T04:43:36.399Z,88.43
2023-04-18T04:46:04.700Z,88.63
2023-04-18T04:48:31.715Z,88.96
2023-04-18T04:51:00.700Z,88.97
2023-04-18T04:53:32.961Z,89.07
2023-04-18T04:55:59.987Z,88.21
2023-04-18T04:58:27.114Z,88.80
2023-04-18T05:00:54.869Z,89.09
2023-04-18T05:03:22.354Z,89.52
2023-04-18T05:05:49.415Z,87.68
2023-04-18T05:08:16.411Z,87.47
2023-04-18T05:10:44.361Z,87.35
2023-04-18T05:13:11.744Z,88.12
2023-04-18T05:15:39.802Z,87.59
2023-04-18T05:18:07.377Z,87.96
2023-04-18T05:20:34.455Z,88.02
2023-04-18T05:23:01.417Z,88.92
2023-04-18T05:25:29.699Z,89.33
2023-04-18T05:27:56.661Z,88.84
2023-04-18T05:30:23.558Z,88.65
2023-04-18T05:32:50.554Z,87.66
2023-04-18T05:35:17.703Z,88.27
2023-04-18T05:37:44.637Z,88.76
2023-04-18T05:40:12.669Z,88.79
2023-04-18T05:42:39.770Z,90.32
2023-04-18T05:45:07.412Z,90.78
2023-04-18T05:47:34.347Z,90.04
2023-04-18T05:50:01.407Z,90.11
2023-04-18T05:52:28.569Z,90.73
2023-04-18T05:54:55.467Z,92.62
2023-04-18T05:57:22.417Z,92.57
2023-04-18T05:59:49.340Z,92.11
2023-04-18T06:02:16.497Z,91.79
2023-04-18T06:04:43.981Z,91.63
2023-04-18T06:07:11.346Z,91.84
2023-04-18T06:09:38.230Z,91.51
2023-04-18T06:12:05.536Z,92.93
2023-04-18T06:14:32.562Z,92.50
2023-04-18T06:16:59.638Z,93.24
2023-04-18T06:19:26.541Z,92.46
2023-04-18T06:21:53.747Z,95.31
2023-04-18T06:24:20.850Z,92.60
2023-04-18T06:26:47.912Z,95.04
2023-04-18T06:29:14.957Z,94.10
2023-04-18T06:31:42.189Z,93.84
2023-04-18T06:34:09.469Z,94.47
2023-04-18T06:36:37.746Z,93.07
2023-04-18T06:39:04.720Z,92.88
2023-04-18T06:41:31.762Z,95.02
2023-04-18T06:44:04.175Z,94.72
2023-04-18T06:46:32.828Z,94.59
2023-04-18T06:48:59.937Z,93.79
2023-04-18T06:51:27.609Z,95.13
2023-04-18T06:53:54.830Z,95.03
2023-04-18T06:56:22.131Z,94.17
2023-04-18T06:58:49.850Z,94.32
2023-04-18T07:01:16.882Z,93.95
2023-04-18T07:03:44.086Z,94.54
2023-04-18T07:06:11.312Z,94.63
2023-04-18T07:08:38.504Z,96.30
2023-04-18T07:11:06.735Z,93.76
2023-04-18T07:13:33.765Z,94.72
2023-04-18T07:16:01.470Z,94.50
2023-04-18T07:18:37.359Z,95.44
2023-04-18T07:21:09.148Z,94.79
2023-04-18T07:23:36.618Z,95.95
2023-04-18T07:26:05.557Z,94.35
2023-04-18T07:28:33.286Z,96.25
2023-04-18T07:31:01.255Z,94.44
2023-04-18T07:33:31.610Z,95.10
2023-04-18T07:35:58.751Z,95.29
2023-04-18T07:38:25.935Z,94.87
2023-04-18T07:41:01.154Z,95.61
2023-04-18T07:43:28.155Z,94.95
2023-04-18T07:45:55.312Z,94.68
2023-04-18T07:48:22.733Z,95.39
2023-04-18T07:50:49.894Z,94.90
2023-04-18T07:53:17.187Z,96.71
2023-04-18T07:55:44.961Z,94.99
2023-04-18T07:58:12.205Z,95.25
2023-04-18T08:00:39.822Z,95.70
2023-04-18T08:03:07.616Z,94.51
2023-04-18T08:05:34.910Z,95.05
2023-04-18T08:08:02.360Z,93.93
2023-04-18T08:10:29.415Z,94.13
2023-04-18T08:12:56.373Z,93.83
2023-04-18T08:15:23.262Z,93.43
2023-04-18T08:17:51.461Z,95.72
2023-04-18T08:20:18.377Z,95.17
2023-04-18T08:23:02.004Z,93.41
2023-04-18T08:25:33.217Z,94.01
2023-04-18T08:28:00.590Z,95.21
2023-04-18T08:30:27.832Z,94.62
2023-04-18T08:32:54.887Z,95.42
2023-04-18T08:35:21.970Z,95.49
2023-04-18T08:37:49.052Z,95.23
2023-04-18T08:40:16.856Z,94.68
2023-04-18T08:42:45.093Z,93.73
2023-04-18T08:45:14.244Z,95.94
2023-04-18T08:47:44.168Z,93.62
2023-04-18T08:50:11.295Z,92.28
2023-04-18T08:52:40.083Z,93.06
2023-04-18T08:55:09.391Z,93.71
2023-04-18T08:57:36.686Z,91.69
2023-04-18T09:00:10.445Z,92.02
2023-04-18T09:02:47.253Z,91.83
2023-04-18T09:05:20.048Z,92.13
2023-04-18T09:07:53.065Z,92.17
2023-04-18T09:10:28.902Z,90.75
2023-04-18T09:12:58.670Z,92.36
2023-04-18T09:15:27.296Z,90.58
2023-04-18T09:17:57.982Z,91.95
2023-04-18T09:20:35.876Z,92.76
2023-04-18T09:23:10.346Z,91.11
2023-04-18T09:25:49.106Z,91.93
2023-04-18T09:28:23.177Z,91.27
2023-04-18T09:30:54.328Z,91.53
2023-04-18T09:33:32.504Z,90.90
2023-04-18T09:36:23.924Z,90.37
2023-04-18T09:38:56.022Z,87.69
2023-04-18T09:41:23.995Z,88.71
2023-04-18T09:44:17.117Z,86.42
2023-04-18T09:46:47.342Z,88.09
2023-04-18T09:49:15.509Z,86.91
2023-04-18T09:51:44.594Z,87.35
2023-04-18T09:54:16.049Z,85.90
2023-04-18T09:56:45.882Z,88.20
2023-04-18T09:59:18.064Z,86.29
2023-04-18T10:01:48.425Z,88.86
2023-04-18T10:04:17.691Z,89.73
2023-04-18T10:06:46.833Z,89.64
2023-04-18T10:09:15.968Z,88.86
2023-04-18T10:11:44.441Z,89.25
2023-04-18T10:14:14.094Z,88.92
2023-04-18T10:16:45.409Z,88.65
2023-04-18T10:19:26.140Z,88.57
2023-04-18T10:22:01.530Z,88.96
2023-04-18T10:24:52.914Z,88.64
2023-04-18T10:27:48.879Z,90.57
2023-04-18T10:30:17.398Z,88.55
2023-04-18T10:32:48.363Z,89.26
2023-04-18T10:35:15.441Z,88.58
2023-04-18T10:37:52.348Z,90.39
2023-04-18T10:40:34.538Z,89.30
2023-04-18T10:43:01.736Z,89.76
2023-04-18T10:45:33.473Z,88.20
2023-04-18T10:48:30.158Z,87.68
2023-04-18T10:51:17.638Z,88.63
2023-04-18T10:53:53.172Z,89.66
2023-04-18T10:56:20.419Z,91.31
2023-04-18T10:58:52.955Z,87.83
2023-04-18T11:01:33.135Z,86.90
2023-04-18T11:04:01.181Z,86.67
2023-04-18T11:06:29.052Z,86.52
2023-04-18T11:09:13.788Z,84.61
2023-04-18T11:11:41.861Z,85.84
2023-04-18T11:14:09.060Z,85.11
2023-04-18T11:16:36.356Z,82.34
2023-04-18T11:19:25.650Z,84.02
2023-04-18T11:21:52.784Z,83.89
2023-04-18T11:24:24.093Z,84.35
2023-04-18T11:26:55.737Z,87.00
2023-04-18T11:29:22.988Z,85.61
2023-04-18T11:31:54.051Z,86.62
2023-04-18T11:34:29.392Z,86.89
2023-04-18T11:36:56.385Z,86.92
2023-04-18T11:39:23.768Z,84.51
2023-04-18T11:41:50.955Z,85.87
2023-04-18T11:44:24.641Z,84.99
2023-04-18T11:46:55.125Z,83.53
2023-04-18T11:49:40.616Z,84.79
2023-04-18T11:52:13.408Z,85.17
2023-04-18T11:54:46.815Z,82.54
2023-04-18T11:57:30.798Z,83.25
2023-04-18T12:00:01.191Z,85.17
2023-04-18T12:02:50.528Z,84.02
2023-04-18T12:05:31.865Z,86.39
2023-04-18T12:08:13.937Z,84.19
2023-04-18T12:10:48.234Z,83.67
2023-04-18T12:13:15.226Z,81.65
2023-04-18T12:15:46.299Z,79.32
2023-04-18T12:18:15.286Z,79.50
2023-04-18T12:20:47.341Z,77.76
2023-04-18T12:23:40.126Z,78.50
2023-04-18T12:26:12.631Z,79.54
2023-04-18T12:28:39.632Z,80.24
2023-04-18T12:31:07.377Z,79.27
2023-04-18T12:33:36.664Z,80.58
2023-04-18T12:36:05.476Z,80.06
2023-04-18T12:38:32.452Z,81.46
2023-04-18T12:40:59.511Z,82.08
2023-04-18T12:43:26.689Z,81.33
2023-04-18T12:45:53.709Z,83.70
2023-04-18T12:48:20.713Z,80.74
2023-04-18T12:50:47.648Z,81.74
2023-04-18T12:53:14.630Z,80.88
2023-04-18T12:55:41.651Z,80.46
2023-04-18T12:58:08.675Z,80.71
2023-04-18T13:00:35.733Z,81.15
2023-04-18T13:03:03.039Z,80.19
2023-04-18T13:05:33.474Z,81.91
2023-04-18T13:10:31.685Z,79.85
2023-04-18T13:12:58.826Z,78.19
2023-04-18T13:15:27.487Z,77.76
2023-04-18T13:17:58.363Z,77.18
2023-04-18T13:20:25.516Z,74.45
2023-04-18T13:22:52.475Z,77.53
2023-04-18T13:25:19.490Z,74.49
2023-04-18T13:27:46.524Z,73.62
2023-04-18T13:30:14.064Z,76.82
2023-04-18T13:32:43.056Z,77.73
2023-04-18T13:35:11.312Z,75.16
2023-04-18T13:37:39.340Z,75.05
2023-04-18T13:40:07.187Z,74.65
2023-04-18T13:42:36.448Z,74.44
2023-04-18T13:45:04.134Z,73.71
2023-04-18T13:47:31.176Z,74.92
2023-04-18T13:49:59.341Z,78.07
2023-04-18T13:52:26.398Z,77.29
2023-04-18T13:54:53.457Z,74.92
2023-04-18T13:57:21.960Z,75.30
2023-04-18T13:59:49.000Z,75.81
2023-04-18T14:02:15.988Z,77.28
2023-04-18T14:04:43.127Z,76.48
2023-04-18T14:07:10.686Z,77.27
2023-04-18T14:09:37.848Z,75.14
2023-04-18T14:12:05.283Z,78.10
2023-04-18T14:14:32.240Z,77.24
2023-04-18T14:16:59.178Z,75.22
2023-04-18T14:19:27.416Z,78.14
2023-04-18T14:21:54.587Z,75.99
2023-04-18T14:24:25.538Z,76.51
2023-04-18T14:26:54.837Z,74.90
2023-04-18T14:29:21.715Z,75.87
2023-04-18T14:31:50.535Z,74.99
2023-04-18T14:34:17.480Z,74.93
2023-04-18T14:36:44.508Z,73.99
2023-04-18T14:39:11.581Z,75.30
2023-04-18T14:41:38.710Z,75.35
2023-04-18T14:44:05.763Z,76.49
2023-04-18T14:46:32.720Z,73.65
2023-04-18T14:49:00.466Z,74.00
2023-04-18T14:51:27.710Z,74.40
2023-04-18T14:53:55.549Z,73.95
2023-04-18T14:56:24.230Z,74.35
2023-04-18T14:58:51.309Z,76.16
2023-04-18T15:01:18.607Z,75.22
2023-04-18T15:03:46.042Z,77.02
2023-04-18T15:06:13.251Z,76.28
2023-04-18T15:08:40.619Z,74.98
2023-04-18T15:11:08.327Z,76.08
2023-04-18T15:13:36.878Z,73.49
2023-04-18T15:16:04.043Z,73.73
2023-04-18T15:18:31.036Z,73.99
2023-04-18T15:20:59.845Z,73.22
2023-04-18T15:23:28.119Z,74.70
2023-04-18T15:25:55.317Z,72.92
2023-04-18T15:28:23.153Z,73.54
2023-04-18T15:30:50.130Z,76.36
2023-04-18T15:33:19.118Z,75.97
2023-04-18T15:35:47.684Z,75.98
2023-04-18T15:38:14.685Z,73.82
2023-04-18T15:40:43.479Z,75.48
2023-04-18T15:43:10.579Z,74.78
2023-04-18T15:45:37.582Z,73.84
2023-04-18T15:48:05.894Z,76.03
2023-04-18T15:50:33.829Z,74.61
2023-04-18T15:53:02.066Z,76.17
2023-04-18T15:55:29.254Z,76.34
2023-04-18T15:57:56.409Z,76.55
2023-04-18T16:00:23.988Z,76.20
2023-04-18T16:02:51.298Z,77.43
2023-04-18T16:05:19.002Z,76.02
2023-04-18T16:07:46.146Z,74.97
2023-04-18T16:10:15.182Z,75.80
2023-04-18T16:12:42.365Z,74.96
2023-04-18T16:15:11.247Z,73.34
2023-04-18T16:17:38.934Z,74.03
2023-04-18T16:20:08.614Z,75.07
2023-04-18T16:22:36.420Z,74.44
2023-04-18T16:25:04.984Z,73.56
2023-04-18T16:27:33.510Z,74.22
2023-04-18T16:30:01.097Z,75.01
2023-04-18T16:32:28.237Z,74.58
2023-04-18T16:34:55.402Z,75.16
2023-04-18T16:37:22.675Z,74.77
2023-04-18T16:39:49.658Z,76.65
2023-04-18T16:42:16.648Z,77.33
2023-04-18T16:44:45.217Z,78.27
2023-04-18T16:47:12.154Z,78.06
2023-04-18T16:49:39.393Z,76.57
2023-04-18T16:52:06.430Z,77.35
2023-04-18T16:54:33.371Z,76.63
2023-04-18T16:57:00.864Z,77.54
2023-04-18T16:59:27.903Z,77.80
2023-04-18T17:01:57.297Z,78.23
2023-04-18T17:04:26.884Z,78.92
2023-04-18T17:06:54.513Z,77.08
2023-04-18T17:09:21.535Z,77.49
2023-04-18T17:11:48.527Z,78.89
2023-04-18T17:14:16.524Z,77.67
2023-04-18T17:16:44.015Z,76.34
2023-04-18T17:19:11.407Z,76.23
2023-04-18T17:21:38.465Z,77.03
2023-04-18T17:24:06.978Z,77.75
2023-04-18T17:26:36.019Z,79.57
2023-04-18T17:29:04.321Z,80.49
2023-04-18T17:31:32.562Z,77.94
2023-04-18T17:34:00.266Z,77.56
2023-04-18T17:36:27.303Z,78.45
2023-04-18T17:38:54.345Z,79.00
2023-04-18T17:41:22.571Z,78.06
2023-04-18T17:43:51.124Z,78.64
2023-04-18T17:46:18.339Z,78.60
2023-04-18T17:48:45.355Z,80.19
2023-04-18T17:51:12.397Z,80.58
2023-04-18T17:53:39.339Z,80.29
2023-04-18T17:56:06.430Z,78.86
2023-04-18T17:58:33.408Z,77.46
2023-04-18T18:01:00.531Z,77.66
2023-04-18T18:03:27.727Z,78.05
2023-04-18T18:05:57.453Z,77.62
2023-04-18T18:08:24.964Z,75.93
2023-04-18T18:10:51.878Z,75.38
2023-04-18T18:13:18.832Z,74.67
2023-04-18T18:15:45.783Z,73.62
2023-04-18T18:18:12.735Z,74.30
2023-04-18T18:20:43.238Z,74.62
2023-04-18T18:23:10.236Z,75.61
2023-04-18T18:25:37.733Z,75.82
2023-04-18T18:28:04.823Z,75.28
2023-04-18T18:30:31.804Z,75.39
2023-04-18T18:32:58.805Z,76.72
2023-04-18T18:35:25.758Z,76.62
2023-04-18T18:37:52.841Z,77.07
2023-04-18T18:40:19.943Z,77.84
2023-04-18T18:42:49.382Z,77.97
2023-04-18T18:45:16.315Z,77.57
2023-04-18T18:47:43.646Z,77.69
2023-04-18T18:50:10.911Z,76.83
2023-04-18T18:52:40.541Z,76.60
2023-04-18T18:55:08.625Z,76.14
2023-04-18T18:57:35.575Z,76.88
2023-04-18T19:00:02.493Z,76.54
2023-04-18T19:02:29.565Z,78.03
2023-04-18T19:04:56.749Z,77.18
2023-04-18T19:07:23.816Z,77.65
2023-04-18T19:09:50.893Z,78.49
2023-04-18T19:12:17.909Z,77.13
2023-04-18T19:14:46.770Z,77.21
2023-04-18T19:17:13.675Z,77.53
2023-04-18T19:19:42.009Z,78.00
2023-04-18T19:22:09.195Z,78.16
2023-04-18T19:24:36.111Z,78.31
2023-04-18T19:27:03.354Z,78.62
2023-04-18T19:29:32.613Z,79.78
2023-04-18T19:31:59.970Z,80.53
2023-04-18T19:34:28.206Z,80.72
2023-04-18T19:36:55.189Z,79.98
2023-04-18T19:39:22.099Z,80.74
2023-04-18T19:41:49.004Z,80.45
2023-04-18T19:44:16.397Z,81.33
2023-04-18T19:46:43.277Z,82.65
2023-04-18T19:49:10.271Z,81.47
2023-04-18T19:51:38.845Z,81.73
2023-04-18T19:54:06.380Z,83.40
2023-04-18T19:56:33.339Z,82.36
2023-04-18T19:59:00.770Z,82.09
2023-04-18T20:01:27.727Z,83.13
2023-04-18T20:03:57.394Z,82.68
2023-04-18T20:06:26.587Z,82.20
2023-04-18T20:08:53.713Z,83.89
2023-04-18T20:11:22.174Z,82.75
2023-04-18T20:13:49.413Z,82.34
2023-04-18T20:16:17.289Z,84.09
2023-04-18T20:18:47.215Z,84.66
2023-04-18T20:21:14.176Z,84.17
2023-04-18T20:23:42.542Z,83.87
2023-04-18T20:26:09.509Z,83.77
2023-04-18T20:28:37.881Z,84.52
2023-04-18T20:31:04.975Z,84.05
2023-04-18T20:33:32.847Z,83.96
2023-04-18T20:36:00.375Z,84.21
2023-04-18T20:38:29.580Z,83.98
2023-04-18T20:40:58.790Z,84.94
2023-04-18T20:43:26.765Z,85.31
2023-04-18T20:45:54.465Z,84.84
2023-04-18T20:48:21.553Z,85.69
2023-04-18T20:50:51.752Z,86.16
2023-04-18T20:53:22.417Z,84.98
2023-04-18T20:55:49.494Z,85.86
2023-04-18T20:58:16.845Z,85.42
2023-04-18T21:00:44.890Z,85.58
2023-04-18T21:03:16.277Z,86.50
2023-04-18T21:05:44.740Z,86.01
2023-04-18T21:08:11.685Z,86.38
2023-04-18T21:10:39.007Z,87.06
2023-04-18T21:13:05.963Z,86.90
2023-04-18T21:15:33.065Z,87.75
2023-04-18T21:18:00.104Z,86.82
2023-04-18T21:20:27.102Z,87.25
2023-04-18T21:22:54.013Z,87.29
2023-04-18T21:25:21.353Z,87.12
2023-04-18T21:27:50.947Z,87.80
2023-04-18T21:30:18.294Z,87.78
2023-04-18T21:32:47.087Z,88.28
2023-04-18T21:35:14.503Z,88.60
2023-04-18T21:37:42.181Z,88.57
2023-04-18T21:40:09.805Z,88.44
2023-04-18T21:42:37.184Z,89.06
2023-04-18T21:45:06.117Z,89.46
2023-04-18T21:47:33.264Z,88.01
2023-04-18T21:50:00.305Z,88.00
2023-04-18T21:52:27.245Z,88.09
2023-04-18T21:54:54.118Z,88.82
2023-04-18T21:57:21.102Z,88.62
2023-04-18T21:59:47.983Z,90.25
2023-04-18T22:02:15.467Z,89.88
2023-04-18T22:04:45.013Z,89.43
2023-04-18T22:07:12.458Z,89.46
2023-04-18T22:09:39.808Z,90.55
2023-04-18T22:12:06.934Z,90.07
2023-04-18T22:14:34.468Z,90.78
2023-04-18T22:17:04.720Z,90.60
2023-04-18T22:19:31.884Z,89.18
2023-04-18T22:21:58.929Z,90.81
2023-04-18T22:24:26.060Z,90.75
2023-04-18T22:26:53.744Z,90.57
2023-04-18T22:29:20.855Z,91.27
2023-04-18T22:31:47.883Z,90.78
2023-04-18T22:34:14.968Z,91.02
2023-04-18T22:36:42.775Z,90.96
2023-04-18T22:39:09.736Z,91.79
2023-04-18T22:41:36.625Z,92.30
2023-04-18T22:44:04.827Z,91.79
2023-04-18T22:46:32.800Z,91.24
2023-04-18T22:48:59.837Z,92.34
2023-04-18T22:51:28.598Z,91.93
2023-04-18T22:53:56.490Z,91.63
2023-04-18T22:56:23.526Z,93.02
2023-04-18T22:58:50.910Z,93.13
2023-04-18T23:01:18.061Z,92.19
2023-04-18T23:03:45.312Z,92.05
2023-04-18T23:06:12.593Z,92.66
2023-04-18T23:08:39.578Z,91.99
2023-04-18T23:11:06.480Z,91.74
2023-04-18T23:13:33.394Z,93.04
2023-04-18T23:16:00.345Z,92.96
2023-04-18T23:18:30.153Z,92.80
2023-04-18T23:20:57.086Z,92.16
2023-04-18T23:23:24.048Z,92.72
2023-04-18T23:25:51.088Z,93.27
2023-04-18T23:28:18.428Z,93.27
2023-04-18T23:30:45.459Z,93.27
2023-04-18T23:33:12.336Z,93.75
2023-04-18T23:35:39.286Z,92.90
2023-04-18T23:38:06.214Z,93.88
2023-04-18T23:40:33.208Z,93.62
2023-04-18T23:43:00.819Z,93.50
2023-04-18T23:45:28.779Z,93.60
2023-04-18T23:47:55.769Z,94.22
2023-04-18T23:50:22.671Z,93.94
2023-04-18T23:52:49.622Z,94.50
2023-04-18T23:55:17.188Z,93.67
2023-04-18T23:57:44.368Z,94.73
